sensor_id;sensor_type;location;lat;lon;timestamp;P1;durP1;ratioP1;P2;durP2;ratioP2
25870;SDS011;13689;48.590;7.752;2022-07-06T00:02:15;0.60;;;0.60;;
25870;SDS011;13689;48.590;7.752;2022-07-06T00:04:41;0.68;;;0.63;;
25870;SDS011;13689;48.590;7.752;2022-07-06T00:07:07;2.83;;;0.70;;
25870;SDS011;13689;48.590;7.752;2022-07-06T00:09:33;3.58;;;0.70;;
25870;SDS011;13689;48.590;7.752;2022-07-06T00:11:58;3.60;;;0.73;;
25870;SDS011;13689;48.590;7.752;2022-07-06T00:14:24;0.98;;;0.68;;
25870;SDS011;13689;48.590;7.752;2022-07-06T00:16:50;1.50;;;0.60;;
25870;SDS011;13689;48.590;7.752;2022-07-06T00:19:15;0.47;;;0.47;;
25870;SDS011;13689;48.590;7.752;2022-07-06T00:21:42;2.78;;;0.63;;
25870;SDS011;13689;48.590;7.752;2022-07-06T00:24:07;0.88;;;0.63;;
25870;SDS011;13689;48.590;7.752;2022-07-06T00:26:33;1.23;;;0.73;;
25870;SDS011;13689;48.590;7.752;2022-07-06T00:28:59;1.08;;;0.52;;
25870;SDS011;13689;48.590;7.752;2022-07-06T00:31:25;1.35;;;0.65;;
25870;SDS011;13689;48.590;7.752;2022-07-06T00:33:50;2.58;;;1.00;;
25870;SDS011;13689;48.590;7.752;2022-07-06T00:36:16;1.40;;;0.70;;
25870;SDS011;13689;48.590;7.752;2022-07-06T00:38:42;0.60;;;0.57;;
25870;SDS011;13689;48.590;7.752;2022-07-06T00:41:07;0.85;;;0.68;;
25870;SDS011;13689;48.590;7.752;2022-07-06T00:43:46;1.15;;;0.52;;
25870;SDS011;13689;48.590;7.752;2022-07-06T00:46:28;2.93;;;0.70;;
25870;SDS011;13689;48.590;7.752;2022-07-06T00:48:56;3.92;;;0.80;;
25870;SDS011;13689;48.590;7.752;2022-07-06T00:51:22;2.13;;;0.80;;
25870;SDS011;13689;48.590;7.752;2022-07-06T00:53:53;1.88;;;0.70;;
25870;SDS011;13689;48.590;7.752;2022-07-06T00:56:19;0.63;;;0.60;;
25870;SDS011;13689;48.590;7.752;2022-07-06T00:58:45;3.72;;;0.93;;
25870;SDS011;13689;48.590;7.752;2022-07-06T01:01:11;0.70;;;0.70;;
25870;SDS011;13689;48.590;7.752;2022-07-06T01:03:37;1.35;;;0.68;;
25870;SDS011;13689;48.590;7.752;2022-07-06T01:06:03;2.47;;;0.68;;
25870;SDS011;13689;48.590;7.752;2022-07-06T01:08:28;2.00;;;0.70;;
25870;SDS011;13689;48.590;7.752;2022-07-06T01:10:54;0.50;;;0.50;;
25870;SDS011;13689;48.590;7.752;2022-07-06T01:13:20;0.98;;;0.80;;
25870;SDS011;13689;48.590;7.752;2022-07-06T01:15:46;1.33;;;0.70;;
25870;SDS011;13689;48.590;7.752;2022-07-06T01:18:11;1.67;;;0.90;;
25870;SDS011;13689;48.590;7.752;2022-07-06T01:20:37;1.23;;;1.08;;
25870;SDS011;13689;48.590;7.752;2022-07-06T01:23:03;1.40;;;1.20;;
25870;SDS011;13689;48.590;7.752;2022-07-06T01:25:29;3.08;;;1.30;;
25870;SDS011;13689;48.590;7.752;2022-07-06T01:27:54;0.85;;;0.80;;
25870;SDS011;13689;48.590;7.752;2022-07-06T01:30:20;0.75;;;0.70;;
25870;SDS011;13689;48.590;7.752;2022-07-06T01:32:46;0.93;;;0.73;;
25870;SDS011;13689;48.590;7.752;2022-07-06T01:35:12;1.35;;;0.75;;
25870;SDS011;13689;48.590;7.752;2022-07-06T01:37:39;5.65;;;0.80;;
25870;SDS011;13689;48.590;7.752;2022-07-06T01:40:06;1.20;;;0.80;;
25870;SDS011;13689;48.590;7.752;2022-07-06T01:42:33;2.75;;;0.82;;
25870;SDS011;13689;48.590;7.752;2022-07-06T01:44:59;0.60;;;0.60;;
25870;SDS011;13689;48.590;7.752;2022-07-06T01:47:25;4.88;;;1.00;;
25870;SDS011;13689;48.590;7.752;2022-07-06T01:49:51;1.73;;;0.90;;
25870;SDS011;13689;48.590;7.752;2022-07-06T01:52:17;1.95;;;1.05;;
25870;SDS011;13689;48.590;7.752;2022-07-06T01:54:43;3.33;;;1.02;;
25870;SDS011;13689;48.590;7.752;2022-07-06T01:57:09;1.67;;;0.90;;
25870;SDS011;13689;48.590;7.752;2022-07-06T01:59:34;1.13;;;1.00;;
25870;SDS011;13689;48.590;7.752;2022-07-06T02:02:00;6.10;;;0.88;;
25870;SDS011;13689;48.590;7.752;2022-07-06T02:04:26;2.25;;;1.25;;
25870;SDS011;13689;48.590;7.752;2022-07-06T02:06:52;3.15;;;1.20;;
25870;SDS011;13689;48.590;7.752;2022-07-06T02:09:18;2.05;;;1.05;;
25870;SDS011;13689;48.590;7.752;2022-07-06T02:11:44;2.03;;;1.08;;
25870;SDS011;13689;48.590;7.752;2022-07-06T02:14:10;4.72;;;1.17;;
25870;SDS011;13689;48.590;7.752;2022-07-06T02:16:35;2.00;;;1.23;;
25870;SDS011;13689;48.590;7.752;2022-07-06T02:19:01;1.98;;;1.15;;
25870;SDS011;13689;48.590;7.752;2022-07-06T02:21:27;1.17;;;1.15;;
25870;SDS011;13689;48.590;7.752;2022-07-06T02:23:53;3.70;;;1.25;;
25870;SDS011;13689;48.590;7.752;2022-07-06T02:26:19;2.17;;;1.20;;
25870;SDS011;13689;48.590;7.752;2022-07-06T02:28:45;1.55;;;1.45;;
25870;SDS011;13689;48.590;7.752;2022-07-06T02:31:12;2.67;;;1.55;;
25870;SDS011;13689;48.590;7.752;2022-07-06T02:33:38;1.67;;;1.33;;
25870;SDS011;13689;48.590;7.752;2022-07-06T02:36:04;2.80;;;1.50;;
25870;SDS011;13689;48.590;7.752;2022-07-06T02:38:30;3.55;;;1.50;;
25870;SDS011;13689;48.590;7.752;2022-07-06T02:40:56;2.00;;;1.25;;
25870;SDS011;13689;48.590;7.752;2022-07-06T02:43:22;2.45;;;1.30;;
25870;SDS011;13689;48.590;7.752;2022-07-06T02:45:47;2.65;;;1.42;;
25870;SDS011;13689;48.590;7.752;2022-07-06T02:48:13;1.30;;;1.20;;
25870;SDS011;13689;48.590;7.752;2022-07-06T02:50:39;1.38;;;1.30;;
25870;SDS011;13689;48.590;7.752;2022-07-06T02:53:05;3.65;;;1.52;;
25870;SDS011;13689;48.590;7.752;2022-07-06T02:55:30;8.68;;;2.00;;
25870;SDS011;13689;48.590;7.752;2022-07-06T02:57:56;7.40;;;1.48;;
25870;SDS011;13689;48.590;7.752;2022-07-06T03:00:22;2.35;;;1.65;;
25870;SDS011;13689;48.590;7.752;2022-07-06T03:02:48;2.47;;;1.63;;
25870;SDS011;13689;48.590;7.752;2022-07-06T03:05:14;7.70;;;1.58;;
25870;SDS011;13689;48.590;7.752;2022-07-06T03:07:39;1.52;;;1.42;;
25870;SDS011;13689;48.590;7.752;2022-07-06T03:10:05;3.45;;;1.70;;
25870;SDS011;13689;48.590;7.752;2022-07-06T03:12:31;3.10;;;1.73;;
25870;SDS011;13689;48.590;7.752;2022-07-06T03:14:57;3.88;;;1.50;;
25870;SDS011;13689;48.590;7.752;2022-07-06T03:17:23;4.18;;;1.70;;
25870;SDS011;13689;48.590;7.752;2022-07-06T03:19:49;3.75;;;1.80;;
25870;SDS011;13689;48.590;7.752;2022-07-06T03:22:15;2.28;;;1.80;;
25870;SDS011;13689;48.590;7.752;2022-07-06T03:24:40;2.60;;;1.80;;
25870;SDS011;13689;48.590;7.752;2022-07-06T03:27:06;5.53;;;2.10;;
25870;SDS011;13689;48.590;7.752;2022-07-06T03:29:37;5.05;;;1.90;;
25870;SDS011;13689;48.590;7.752;2022-07-06T03:32:02;3.97;;;1.58;;
25870;SDS011;13689;48.590;7.752;2022-07-06T03:34:28;2.25;;;1.77;;
25870;SDS011;13689;48.590;7.752;2022-07-06T03:36:54;7.80;;;2.33;;
25870;SDS011;13689;48.590;7.752;2022-07-06T03:39:41;2.20;;;1.55;;
25870;SDS011;13689;48.590;7.752;2022-07-06T03:42:06;3.42;;;1.80;;
25870;SDS011;13689;48.590;7.752;2022-07-06T03:44:31;1.85;;;1.67;;
25870;SDS011;13689;48.590;7.752;2022-07-06T03:46:57;2.72;;;1.75;;
25870;SDS011;13689;48.590;7.752;2022-07-06T03:49:23;3.40;;;1.70;;
25870;SDS011;13689;48.590;7.752;2022-07-06T03:51:52;1.85;;;1.70;;
25870;SDS011;13689;48.590;7.752;2022-07-06T03:54:17;2.80;;;1.80;;
25870;SDS011;13689;48.590;7.752;2022-07-06T03:56:43;2.00;;;1.75;;
25870;SDS011;13689;48.590;7.752;2022-07-06T03:59:10;5.22;;;2.13;;
25870;SDS011;13689;48.590;7.752;2022-07-06T04:01:36;6.47;;;1.77;;
25870;SDS011;13689;48.590;7.752;2022-07-06T04:04:02;2.65;;;1.65;;
25870;SDS011;13689;48.590;7.752;2022-07-06T04:06:27;4.03;;;1.60;;
25870;SDS011;13689;48.590;7.752;2022-07-06T04:08:53;9.45;;;2.30;;
25870;SDS011;13689;48.590;7.752;2022-07-06T04:11:19;4.03;;;2.17;;
25870;SDS011;13689;48.590;7.752;2022-07-06T04:13:44;5.57;;;2.50;;
25870;SDS011;13689;48.590;7.752;2022-07-06T04:16:10;3.80;;;2.10;;
25870;SDS011;13689;48.590;7.752;2022-07-06T04:18:36;4.82;;;2.28;;
25870;SDS011;13689;48.590;7.752;2022-07-06T04:21:02;7.72;;;2.47;;
25870;SDS011;13689;48.590;7.752;2022-07-06T04:23:27;4.18;;;2.10;;
25870;SDS011;13689;48.590;7.752;2022-07-06T04:25:53;5.15;;;1.98;;
25870;SDS011;13689;48.590;7.752;2022-07-06T04:28:19;3.97;;;2.42;;
25870;SDS011;13689;48.590;7.752;2022-07-06T04:30:45;3.85;;;1.95;;
25870;SDS011;13689;48.590;7.752;2022-07-06T04:33:13;4.63;;;2.08;;
25870;SDS011;13689;48.590;7.752;2022-07-06T04:35:39;3.50;;;1.98;;
25870;SDS011;13689;48.590;7.752;2022-07-06T04:38:05;6.35;;;2.20;;
25870;SDS011;13689;48.590;7.752;2022-07-06T04:40:30;3.03;;;2.05;;
25870;SDS011;13689;48.590;7.752;2022-07-06T04:42:56;2.47;;;1.77;;
25870;SDS011;13689;48.590;7.752;2022-07-06T04:45:22;2.90;;;1.75;;
25870;SDS011;13689;48.590;7.752;2022-07-06T04:47:48;3.10;;;1.95;;
25870;SDS011;13689;48.590;7.752;2022-07-06T04:50:13;2.22;;;2.03;;
25870;SDS011;13689;48.590;7.752;2022-07-06T04:52:39;2.97;;;1.85;;
25870;SDS011;13689;48.590;7.752;2022-07-06T04:55:05;3.03;;;2.00;;
25870;SDS011;13689;48.590;7.752;2022-07-06T04:57:34;6.63;;;1.50;;
25870;SDS011;13689;48.590;7.752;2022-07-06T05:00:04;2.72;;;1.70;;
25870;SDS011;13689;48.590;7.752;2022-07-06T05:02:30;2.88;;;1.92;;
25870;SDS011;13689;48.590;7.752;2022-07-06T05:07:24;4.03;;;1.55;;
25870;SDS011;13689;48.590;7.752;2022-07-06T05:09:54;4.15;;;2.20;;
25870;SDS011;13689;48.590;7.752;2022-07-06T05:12:19;4.90;;;2.00;;
25870;SDS011;13689;48.590;7.752;2022-07-06T05:14:45;2.95;;;1.63;;
25870;SDS011;13689;48.590;7.752;2022-07-06T05:17:11;6.72;;;1.90;;
25870;SDS011;13689;48.590;7.752;2022-07-06T05:19:36;4.05;;;1.98;;
25870;SDS011;13689;48.590;7.752;2022-07-06T05:22:02;4.55;;;1.88;;
25870;SDS011;13689;48.590;7.752;2022-07-06T05:24:28;3.97;;;2.00;;
25870;SDS011;13689;48.590;7.752;2022-07-06T05:26:53;5.78;;;1.67;;
25870;SDS011;13689;48.590;7.752;2022-07-06T05:29:19;1.65;;;1.45;;
25870;SDS011;13689;48.590;7.752;2022-07-06T05:31:44;2.38;;;1.60;;
25870;SDS011;13689;48.590;7.752;2022-07-06T05:34:10;3.00;;;1.67;;
25870;SDS011;13689;48.590;7.752;2022-07-06T05:36:36;3.63;;;1.67;;
25870;SDS011;13689;48.590;7.752;2022-07-06T05:39:02;2.55;;;1.65;;
25870;SDS011;13689;48.590;7.752;2022-07-06T05:41:27;3.00;;;1.80;;
25870;SDS011;13689;48.590;7.752;2022-07-06T05:43:53;2.40;;;1.50;;
25870;SDS011;13689;48.590;7.752;2022-07-06T05:46:19;3.95;;;1.38;;
25870;SDS011;13689;48.590;7.752;2022-07-06T05:48:44;3.17;;;1.50;;
25870;SDS011;13689;48.590;7.752;2022-07-06T05:51:28;6.30;;;1.50;;
25870;SDS011;13689;48.590;7.752;2022-07-06T05:53:54;5.32;;;1.63;;
25870;SDS011;13689;48.590;7.752;2022-07-06T05:56:19;5.35;;;1.75;;
25870;SDS011;13689;48.590;7.752;2022-07-06T05:58:45;2.47;;;1.50;;
25870;SDS011;13689;48.590;7.752;2022-07-06T06:01:11;2.90;;;1.83;;
25870;SDS011;13689;48.590;7.752;2022-07-06T06:03:36;1.80;;;1.70;;
25870;SDS011;13689;48.590;7.752;2022-07-06T06:06:03;3.67;;;1.48;;
25870;SDS011;13689;48.590;7.752;2022-07-06T06:08:29;2.10;;;1.52;;
25870;SDS011;13689;48.590;7.752;2022-07-06T06:11:08;8.00;;;1.00;;
25870;SDS011;13689;48.590;7.752;2022-07-06T06:13:36;3.05;;;1.70;;
25870;SDS011;13689;48.590;7.752;2022-07-06T06:16:10;4.88;;;1.58;;
25870;SDS011;13689;48.590;7.752;2022-07-06T06:19:08;4.35;;;1.75;;
25870;SDS011;13689;48.590;7.752;2022-07-06T06:21:35;5.10;;;1.30;;
25870;SDS011;13689;48.590;7.752;2022-07-06T06:24:01;2.13;;;1.50;;
25870;SDS011;13689;48.590;7.752;2022-07-06T06:26:26;2.72;;;1.58;;
25870;SDS011;13689;48.590;7.752;2022-07-06T06:28:52;1.35;;;1.15;;
25870;SDS011;13689;48.590;7.752;2022-07-06T06:31:18;5.00;;;1.70;;
25870;SDS011;13689;48.590;7.752;2022-07-06T06:33:43;3.20;;;1.77;;
25870;SDS011;13689;48.590;7.752;2022-07-06T06:36:09;3.63;;;1.67;;
25870;SDS011;13689;48.590;7.752;2022-07-06T06:38:35;2.25;;;1.27;;
25870;SDS011;13689;48.590;7.752;2022-07-06T06:41:03;2.78;;;1.48;;
25870;SDS011;13689;48.590;7.752;2022-07-06T06:43:28;1.92;;;1.40;;
25870;SDS011;13689;48.590;7.752;2022-07-06T06:45:54;1.88;;;1.27;;
25870;SDS011;13689;48.590;7.752;2022-07-06T06:48:20;2.50;;;1.20;;
25870;SDS011;13689;48.590;7.752;2022-07-06T06:50:52;1.70;;;1.60;;
25870;SDS011;13689;48.590;7.752;2022-07-06T06:53:18;12.05;;;1.75;;
25870;SDS011;13689;48.590;7.752;2022-07-06T06:55:43;6.07;;;2.03;;
25870;SDS011;13689;48.590;7.752;2022-07-06T07:00:48;4.13;;;1.50;;
25870;SDS011;13689;48.590;7.752;2022-07-06T07:03:26;3.40;;;1.40;;
25870;SDS011;13689;48.590;7.752;2022-07-06T07:06:01;4.95;;;1.48;;
25870;SDS011;13689;48.590;7.752;2022-07-06T07:08:54;0.68;;;0.68;;
25870;SDS011;13689;48.590;7.752;2022-07-06T07:11:28;3.03;;;1.60;;
25870;SDS011;13689;48.590;7.752;2022-07-06T07:13:57;4.78;;;2.55;;
25870;SDS011;13689;48.590;7.752;2022-07-06T07:18:51;2.63;;;1.17;;
25870;SDS011;13689;48.590;7.752;2022-07-06T07:21:17;2.47;;;1.20;;
25870;SDS011;13689;48.590;7.752;2022-07-06T07:23:51;6.07;;;1.45;;
25870;SDS011;13689;48.590;7.752;2022-07-06T07:26:17;5.30;;;1.35;;
25870;SDS011;13689;48.590;7.752;2022-07-06T07:28:51;3.75;;;1.25;;
25870;SDS011;13689;48.590;7.752;2022-07-06T07:31:19;1.65;;;1.02;;
25870;SDS011;13689;48.590;7.752;2022-07-06T07:34:03;1.17;;;1.02;;
25870;SDS011;13689;48.590;7.752;2022-07-06T07:36:31;2.38;;;1.27;;
25870;SDS011;13689;48.590;7.752;2022-07-06T07:38:57;1.27;;;1.10;;
25870;SDS011;13689;48.590;7.752;2022-07-06T07:41:22;1.35;;;0.90;;
25870;SDS011;13689;48.590;7.752;2022-07-06T07:43:48;2.85;;;1.35;;
25870;SDS011;13689;48.590;7.752;2022-07-06T07:46:14;2.75;;;1.23;;
25870;SDS011;13689;48.590;7.752;2022-07-06T07:48:39;5.47;;;1.10;;
25870;SDS011;13689;48.590;7.752;2022-07-06T07:51:06;3.30;;;0.98;;
25870;SDS011;13689;48.590;7.752;2022-07-06T07:53:40;2.67;;;0.65;;
25870;SDS011;13689;48.590;7.752;2022-07-06T07:56:12;2.33;;;1.20;;
25870;SDS011;13689;48.590;7.752;2022-07-06T07:58:38;5.45;;;1.38;;
25870;SDS011;13689;48.590;7.752;2022-07-06T08:02:01;2.88;;;0.80;;
25870;SDS011;13689;48.590;7.752;2022-07-06T08:04:30;3.50;;;1.05;;
25870;SDS011;13689;48.590;7.752;2022-07-06T08:06:56;3.83;;;1.27;;
25870;SDS011;13689;48.590;7.752;2022-07-06T08:09:27;3.25;;;1.10;;
25870;SDS011;13689;48.590;7.752;2022-07-06T08:11:53;2.88;;;1.30;;
25870;SDS011;13689;48.590;7.752;2022-07-06T08:14:22;2.55;;;1.10;;
25870;SDS011;13689;48.590;7.752;2022-07-06T08:16:47;4.35;;;1.40;;
25870;SDS011;13689;48.590;7.752;2022-07-06T08:19:13;3.30;;;1.00;;
25870;SDS011;13689;48.590;7.752;2022-07-06T08:21:40;1.77;;;1.13;;
25870;SDS011;13689;48.590;7.752;2022-07-06T08:24:06;4.05;;;1.30;;
25870;SDS011;13689;48.590;7.752;2022-07-06T08:26:37;3.10;;;0.98;;
25870;SDS011;13689;48.590;7.752;2022-07-06T08:29:10;1.73;;;0.77;;
25870;SDS011;13689;48.590;7.752;2022-07-06T08:31:52;1.38;;;1.00;;
25870;SDS011;13689;48.590;7.752;2022-07-06T08:34:18;1.30;;;1.02;;
25870;SDS011;13689;48.590;7.752;2022-07-06T08:39:32;2.08;;;1.27;;
25870;SDS011;13689;48.590;7.752;2022-07-06T08:41:58;1.90;;;1.40;;
25870;SDS011;13689;48.590;7.752;2022-07-06T08:44:35;3.13;;;2.17;;
25870;SDS011;13689;48.590;7.752;2022-07-06T08:47:31;4.03;;;1.20;;
25870;SDS011;13689;48.590;7.752;2022-07-06T08:50:00;2.72;;;1.00;;
25870;SDS011;13689;48.590;7.752;2022-07-06T08:52:27;1.90;;;1.58;;
25870;SDS011;13689;48.590;7.752;2022-07-06T08:54:53;2.92;;;1.15;;
25870;SDS011;13689;48.590;7.752;2022-07-06T08:57:19;1.15;;;1.08;;
25870;SDS011;13689;48.590;7.752;2022-07-06T08:59:45;4.05;;;1.00;;
25870;SDS011;13689;48.590;7.752;2022-07-06T09:02:10;2.85;;;1.30;;
25870;SDS011;13689;48.590;7.752;2022-07-06T09:04:38;2.00;;;1.00;;
25870;SDS011;13689;48.590;7.752;2022-07-06T09:07:08;1.90;;;0.95;;
25870;SDS011;13689;48.590;7.752;2022-07-06T09:09:34;0.65;;;0.65;;
25870;SDS011;13689;48.590;7.752;2022-07-06T09:12:03;1.13;;;0.90;;
25870;SDS011;13689;48.590;7.752;2022-07-06T09:14:29;2.13;;;1.08;;
25870;SDS011;13689;48.590;7.752;2022-07-06T09:17:02;2.85;;;1.40;;
25870;SDS011;13689;48.590;7.752;2022-07-06T09:19:30;3.45;;;0.80;;
25870;SDS011;13689;48.590;7.752;2022-07-06T09:21:57;1.65;;;0.93;;
25870;SDS011;13689;48.590;7.752;2022-07-06T09:24:26;4.95;;;0.90;;
25870;SDS011;13689;48.590;7.752;2022-07-06T09:26:55;0.77;;;0.77;;
25870;SDS011;13689;48.590;7.752;2022-07-06T09:29:41;2.03;;;0.98;;
25870;SDS011;13689;48.590;7.752;2022-07-06T09:32:06;7.68;;;1.00;;
25870;SDS011;13689;48.590;7.752;2022-07-06T09:34:42;6.20;;;1.00;;
25870;SDS011;13689;48.590;7.752;2022-07-06T09:37:09;1.88;;;0.95;;
25870;SDS011;13689;48.590;7.752;2022-07-06T09:39:35;1.73;;;1.00;;
25870;SDS011;13689;48.590;7.752;2022-07-06T09:42:06;3.08;;;1.10;;
25870;SDS011;13689;48.590;7.752;2022-07-06T09:44:53;1.05;;;0.70;;
25870;SDS011;13689;48.590;7.752;2022-07-06T09:47:19;0.90;;;0.90;;
25870;SDS011;13689;48.590;7.752;2022-07-06T09:49:45;3.85;;;0.93;;
25870;SDS011;13689;48.590;7.752;2022-07-06T09:52:16;2.60;;;1.20;;
25870;SDS011;13689;48.590;7.752;2022-07-06T09:55:06;2.13;;;1.00;;
25870;SDS011;13689;48.590;7.752;2022-07-06T10:00:27;5.63;;;1.23;;
25870;SDS011;13689;48.590;7.752;2022-07-06T10:03:04;1.50;;;0.77;;
25870;SDS011;13689;48.590;7.752;2022-07-06T10:05:39;1.70;;;1.20;;
25870;SDS011;13689;48.590;7.752;2022-07-06T10:08:07;1.65;;;1.15;;
25870;SDS011;13689;48.590;7.752;2022-07-06T10:10:34;3.35;;;1.20;;
25870;SDS011;13689;48.590;7.752;2022-07-06T10:13:02;2.97;;;1.00;;
25870;SDS011;13689;48.590;7.752;2022-07-06T10:15:31;1.63;;;1.10;;
25870;SDS011;13689;48.590;7.752;2022-07-06T10:18:02;3.75;;;0.95;;
25870;SDS011;13689;48.590;7.752;2022-07-06T10:20:37;2.83;;;0.80;;
25870;SDS011;13689;48.590;7.752;2022-07-06T10:23:09;2.70;;;0.88;;
25870;SDS011;13689;48.590;7.752;2022-07-06T10:29:09;3.00;;;0.90;;
25870;SDS011;13689;48.590;7.752;2022-07-06T10:32:05;1.30;;;1.05;;
25870;SDS011;13689;48.590;7.752;2022-07-06T10:34:45;1.65;;;1.23;;
25870;SDS011;13689;48.590;7.752;2022-07-06T10:37:21;3.83;;;1.00;;
25870;SDS011;13689;48.590;7.752;2022-07-06T10:43:22;2.28;;;0.70;;
25870;SDS011;13689;48.590;7.752;2022-07-06T10:45:56;1.77;;;0.68;;
25870;SDS011;13689;48.590;7.752;2022-07-06T10:55:40;1.67;;;0.70;;
25870;SDS011;13689;48.590;7.752;2022-07-06T11:02:17;1.85;;;1.10;;
25870;SDS011;13689;48.590;7.752;2022-07-06T11:05:03;3.55;;;1.10;;
25870;SDS011;13689;48.590;7.752;2022-07-06T11:07:48;2.33;;;1.00;;
25870;SDS011;13689;48.590;7.752;2022-07-06T11:10:15;3.70;;;1.17;;
25870;SDS011;13689;48.590;7.752;2022-07-06T11:12:46;2.97;;;1.08;;
25870;SDS011;13689;48.590;7.752;2022-07-06T11:18:15;1.23;;;0.88;;
25870;SDS011;13689;48.590;7.752;2022-07-06T11:23:49;1.25;;;1.00;;
25870;SDS011;13689;48.590;7.752;2022-07-06T11:26:16;3.38;;;1.00;;
25870;SDS011;13689;48.590;7.752;2022-07-06T11:28:46;3.90;;;0.82;;
25870;SDS011;13689;48.590;7.752;2022-07-06T11:31:15;3.00;;;1.07;;
25870;SDS011;13689;48.590;7.752;2022-07-06T11:34:12;2.10;;;1.38;;
25870;SDS011;13689;48.590;7.752;2022-07-06T11:36:42;2.42;;;1.08;;
25870;SDS011;13689;48.590;7.752;2022-07-06T11:39:08;2.40;;;1.00;;
25870;SDS011;13689;48.590;7.752;2022-07-06T11:41:34;2.90;;;0.73;;
25870;SDS011;13689;48.590;7.752;2022-07-06T11:44:01;4.05;;;1.00;;
25870;SDS011;13689;48.590;7.752;2022-07-06T11:46:28;1.38;;;1.00;;
25870;SDS011;13689;48.590;7.752;2022-07-06T11:48:55;2.22;;;0.90;;
25870;SDS011;13689;48.590;7.752;2022-07-06T11:53:52;3.22;;;1.10;;
25870;SDS011;13689;48.590;7.752;2022-07-06T11:56:20;1.58;;;0.93;;
25870;SDS011;13689;48.590;7.752;2022-07-06T11:58:50;1.83;;;0.70;;
25870;SDS011;13689;48.590;7.752;2022-07-06T12:01:17;2.83;;;0.70;;
25870;SDS011;13689;48.590;7.752;2022-07-06T12:03:43;0.95;;;0.75;;
25870;SDS011;13689;48.590;7.752;2022-07-06T12:06:28;3.80;;;0.90;;
25870;SDS011;13689;48.590;7.752;2022-07-06T12:08:55;6.25;;;0.85;;
25870;SDS011;13689;48.590;7.752;2022-07-06T12:11:23;3.33;;;0.95;;
25870;SDS011;13689;48.590;7.752;2022-07-06T12:13:54;1.65;;;0.70;;
25870;SDS011;13689;48.590;7.752;2022-07-06T12:16:31;2.70;;;0.90;;
25870;SDS011;13689;48.590;7.752;2022-07-06T12:18:59;3.95;;;1.08;;
25870;SDS011;13689;48.590;7.752;2022-07-06T12:21:26;2.13;;;0.95;;
25870;SDS011;13689;48.590;7.752;2022-07-06T12:23:52;3.40;;;0.80;;
25870;SDS011;13689;48.590;7.752;2022-07-06T12:26:20;1.38;;;0.82;;
25870;SDS011;13689;48.590;7.752;2022-07-06T12:31:39;2.75;;;0.70;;
25870;SDS011;13689;48.590;7.752;2022-07-06T12:37:23;3.70;;;0.90;;
25870;SDS011;13689;48.590;7.752;2022-07-06T12:42:48;2.00;;;0.75;;
25870;SDS011;13689;48.590;7.752;2022-07-06T12:45:27;3.33;;;0.73;;
25870;SDS011;13689;48.590;7.752;2022-07-06T12:48:01;1.05;;;0.80;;
25870;SDS011;13689;48.590;7.752;2022-07-06T12:51:13;2.22;;;0.75;;
25870;SDS011;13689;48.590;7.752;2022-07-06T12:53:42;0.95;;;0.65;;
25870;SDS011;13689;48.590;7.752;2022-07-06T12:56:20;1.17;;;0.60;;
25870;SDS011;13689;48.590;7.752;2022-07-06T12:59:03;4.07;;;0.70;;
25870;SDS011;13689;48.590;7.752;2022-07-06T13:01:46;1.58;;;0.47;;
25870;SDS011;13689;48.590;7.752;2022-07-06T13:04:16;3.70;;;0.40;;
25870;SDS011;13689;48.590;7.752;2022-07-06T13:06:48;1.30;;;0.50;;
25870;SDS011;13689;48.590;7.752;2022-07-06T13:09:14;8.77;;;0.70;;
25870;SDS011;13689;48.590;7.752;2022-07-06T13:11:41;3.35;;;0.80;;
25870;SDS011;13689;48.590;7.752;2022-07-06T13:14:12;2.97;;;0.63;;
25870;SDS011;13689;48.590;7.752;2022-07-06T13:16:38;4.72;;;0.40;;
25870;SDS011;13689;48.590;7.752;2022-07-06T13:19:04;3.05;;;0.73;;
25870;SDS011;13689;48.590;7.752;2022-07-06T13:21:30;3.10;;;0.40;;
25870;SDS011;13689;48.590;7.752;2022-07-06T13:23:55;2.05;;;0.30;;
25870;SDS011;13689;48.590;7.752;2022-07-06T13:29:39;2.25;;;0.63;;
25870;SDS011;13689;48.590;7.752;2022-07-06T13:32:05;2.03;;;0.57;;
25870;SDS011;13689;48.590;7.752;2022-07-06T13:34:31;1.02;;;0.40;;
25870;SDS011;13689;48.590;7.752;2022-07-06T13:36:57;4.43;;;0.55;;
25870;SDS011;13689;48.590;7.752;2022-07-06T13:39:23;1.98;;;1.10;;
25870;SDS011;13689;48.590;7.752;2022-07-06T13:41:52;1.58;;;0.73;;
25870;SDS011;13689;48.590;7.752;2022-07-06T13:44:18;3.47;;;0.68;;
25870;SDS011;13689;48.590;7.752;2022-07-06T13:46:44;1.08;;;0.50;;
25870;SDS011;13689;48.590;7.752;2022-07-06T13:49:10;1.08;;;0.40;;
25870;SDS011;13689;48.590;7.752;2022-07-06T13:51:36;1.52;;;0.60;;
25870;SDS011;13689;48.590;7.752;2022-07-06T13:54:02;2.25;;;0.40;;
25870;SDS011;13689;48.590;7.752;2022-07-06T13:56:36;1.65;;;0.40;;
25870;SDS011;13689;48.590;7.752;2022-07-06T13:59:03;1.70;;;0.30;;
25870;SDS011;13689;48.590;7.752;2022-07-06T14:01:29;2.00;;;0.50;;
25870;SDS011;13689;48.590;7.752;2022-07-06T14:03:55;0.85;;;0.50;;
25870;SDS011;13689;48.590;7.752;2022-07-06T14:06:21;1.48;;;0.50;;
25870;SDS011;13689;48.590;7.752;2022-07-06T14:08:47;0.88;;;0.30;;
25870;SDS011;13689;48.590;7.752;2022-07-06T14:11:12;0.90;;;0.40;;
25870;SDS011;13689;48.590;7.752;2022-07-06T14:13:38;0.73;;;0.40;;
25870;SDS011;13689;48.590;7.752;2022-07-06T14:16:05;0.30;;;0.30;;
25870;SDS011;13689;48.590;7.752;2022-07-06T14:21:00;1.45;;;0.60;;
25870;SDS011;13689;48.590;7.752;2022-07-06T14:23:37;1.85;;;0.22;;
25870;SDS011;13689;48.590;7.752;2022-07-06T14:26:03;7.57;;;0.68;;
25870;SDS011;13689;48.590;7.752;2022-07-06T14:28:36;3.30;;;0.50;;
25870;SDS011;13689;48.590;7.752;2022-07-06T14:31:02;1.85;;;0.50;;
25870;SDS011;13689;48.590;7.752;2022-07-06T14:33:28;1.90;;;0.43;;
25870;SDS011;13689;48.590;7.752;2022-07-06T14:35:59;1.65;;;0.50;;
25870;SDS011;13689;48.590;7.752;2022-07-06T14:38:25;2.88;;;0.55;;
25870;SDS011;13689;48.590;7.752;2022-07-06T14:40:52;1.48;;;0.47;;
25870;SDS011;13689;48.590;7.752;2022-07-06T14:43:18;0.65;;;0.50;;
25870;SDS011;13689;48.590;7.752;2022-07-06T14:46:02;2.25;;;0.50;;
25870;SDS011;13689;48.590;7.752;2022-07-06T14:48:27;1.80;;;0.50;;
25870;SDS011;13689;48.590;7.752;2022-07-06T14:50:53;1.80;;;0.50;;
25870;SDS011;13689;48.590;7.752;2022-07-06T14:53:19;0.75;;;0.40;;
25870;SDS011;13689;48.590;7.752;2022-07-06T14:55:45;1.67;;;0.50;;
25870;SDS011;13689;48.590;7.752;2022-07-06T14:58:33;0.95;;;0.50;;
25870;SDS011;13689;48.590;7.752;2022-07-06T15:00:58;1.13;;;0.50;;
25870;SDS011;13689;48.590;7.752;2022-07-06T15:03:26;0.82;;;0.40;;
25870;SDS011;13689;48.590;7.752;2022-07-06T15:05:52;0.85;;;0.40;;
25870;SDS011;13689;48.590;7.752;2022-07-06T15:08:18;1.25;;;0.40;;
25870;SDS011;13689;48.590;7.752;2022-07-06T15:10:53;1.40;;;0.43;;
25870;SDS011;13689;48.590;7.752;2022-07-06T15:13:19;1.50;;;0.65;;
25870;SDS011;13689;48.590;7.752;2022-07-06T15:15:47;5.05;;;0.55;;
25870;SDS011;13689;48.590;7.752;2022-07-06T15:18:51;1.85;;;0.90;;
25870;SDS011;13689;48.590;7.752;2022-07-06T15:21:17;0.50;;;0.50;;
25870;SDS011;13689;48.590;7.752;2022-07-06T15:23:43;0.60;;;0.35;;
25870;SDS011;13689;48.590;7.752;2022-07-06T15:26:09;1.40;;;0.43;;
25870;SDS011;13689;48.590;7.752;2022-07-06T15:28:35;2.22;;;0.30;;
25870;SDS011;13689;48.590;7.752;2022-07-06T15:31:01;0.77;;;0.35;;
25870;SDS011;13689;48.590;7.752;2022-07-06T15:33:26;3.55;;;0.50;;
25870;SDS011;13689;48.590;7.752;2022-07-06T15:36:00;2.95;;;0.55;;
25870;SDS011;13689;48.590;7.752;2022-07-06T15:38:26;1.20;;;0.43;;
25870;SDS011;13689;48.590;7.752;2022-07-06T15:40:54;0.82;;;0.70;;
25870;SDS011;13689;48.590;7.752;2022-07-06T15:43:28;1.73;;;0.70;;
25870;SDS011;13689;48.590;7.752;2022-07-06T15:45:55;6.80;;;0.50;;
25870;SDS011;13689;48.590;7.752;2022-07-06T15:48:23;4.15;;;0.52;;
25870;SDS011;13689;48.590;7.752;2022-07-06T15:50:50;0.98;;;0.57;;
25870;SDS011;13689;48.590;7.752;2022-07-06T15:53:25;2.05;;;0.47;;